sensor_id;sensor_type;location;lat;lon;timestamp;P1;durP1;ratioP1;P2;durP2;ratioP2
17826;SDS011;9038;48.208;16.308;2022-12-22T00:00:19;38.57;;;18.47;;
17826;SDS011;9038;48.208;16.308;2022-12-22T00:02:39;33.97;;;17.83;;
17826;SDS011;9038;48.208;16.308;2022-12-22T00:04:58;38.60;;;18.43;;
17826;SDS011;9038;48.208;16.308;2022-12-22T00:07:18;38.57;;;18.90;;
17826;SDS011;9038;48.208;16.308;2022-12-22T00:09:38;42.07;;;19.33;;
17826;SDS011;9038;48.208;16.308;2022-12-22T00:11:57;44.40;;;19.73;;
17826;SDS011;9038;48.208;16.308;2022-12-22T00:14:16;41.77;;;18.50;;
17826;SDS011;9038;48.208;16.308;2022-12-22T00:16:37;35.60;;;17.93;;
17826;SDS011;9038;48.208;16.308;2022-12-22T00:18:57;38.47;;;18.90;;
17826;SDS011;9038;48.208;16.308;2022-12-22T00:21:16;36.17;;;18.67;;
17826;SDS011;9038;48.208;16.308;2022-12-22T00:23:36;39.97;;;18.77;;
17826;SDS011;9038;48.208;16.308;2022-12-22T00:25:55;39.30;;;20.03;;
17826;SDS011;9038;48.208;16.308;2022-12-22T00:28:16;38.03;;;18.37;;
17826;SDS011;9038;48.208;16.308;2022-12-22T00:30:35;37.33;;;18.43;;
17826;SDS011;9038;48.208;16.308;2022-12-22T00:32:56;34.90;;;17.57;;
17826;SDS011;9038;48.208;16.308;2022-12-22T00:35:17;38.43;;;18.03;;
17826;SDS011;9038;48.208;16.308;2022-12-22T00:37:39;36.83;;;18.30;;
17826;SDS011;9038;48.208;16.308;2022-12-22T00:39:58;34.03;;;17.67;;
17826;SDS011;9038;48.208;16.308;2022-12-22T00:42:18;36.23;;;17.40;;
17826;SDS011;9038;48.208;16.308;2022-12-22T00:44:37;35.90;;;18.30;;
17826;SDS011;9038;48.208;16.308;2022-12-22T00:46:57;38.97;;;19.20;;
17826;SDS011;9038;48.208;16.308;2022-12-22T00:49:17;37.23;;;18.37;;
17826;SDS011;9038;48.208;16.308;2022-12-22T00:51:37;37.77;;;19.17;;
17826;SDS011;9038;48.208;16.308;2022-12-22T00:53:56;38.10;;;18.20;;
17826;SDS011;9038;48.208;16.308;2022-12-22T00:56:16;39.30;;;18.73;;
17826;SDS011;9038;48.208;16.308;2022-12-22T00:58:35;34.57;;;17.93;;
17826;SDS011;9038;48.208;16.308;2022-12-22T01:00:55;36.17;;;17.77;;
17826;SDS011;9038;48.208;16.308;2022-12-22T01:03:14;37.13;;;18.20;;
17826;SDS011;9038;48.208;16.308;2022-12-22T01:05:35;34.97;;;17.70;;
17826;SDS011;9038;48.208;16.308;2022-12-22T01:07:55;34.63;;;18.30;;
17826;SDS011;9038;48.208;16.308;2022-12-22T01:10:14;40.73;;;18.10;;
17826;SDS011;9038;48.208;16.308;2022-12-22T01:12:35;38.47;;;18.20;;
17826;SDS011;9038;48.208;16.308;2022-12-22T01:14:56;36.63;;;18.70;;
17826;SDS011;9038;48.208;16.308;2022-12-22T01:17:15;32.43;;;18.03;;
17826;SDS011;9038;48.208;16.308;2022-12-22T01:19:35;42.07;;;19.10;;
17826;SDS011;9038;48.208;16.308;2022-12-22T01:21:56;37.53;;;18.07;;
17826;SDS011;9038;48.208;16.308;2022-12-22T01:24:16;33.67;;;17.00;;
17826;SDS011;9038;48.208;16.308;2022-12-22T01:26:36;30.70;;;17.57;;
17826;SDS011;9038;48.208;16.308;2022-12-22T01:28:55;36.63;;;18.57;;
17826;SDS011;9038;48.208;16.308;2022-12-22T01:31:15;31.70;;;16.77;;
17826;SDS011;9038;48.208;16.308;2022-12-22T01:33:36;39.17;;;18.60;;
17826;SDS011;9038;48.208;16.308;2022-12-22T01:35:55;34.83;;;17.90;;
17826;SDS011;9038;48.208;16.308;2022-12-22T01:38:15;38.00;;;18.17;;
17826;SDS011;9038;48.208;16.308;2022-12-22T01:40:35;36.30;;;17.77;;
17826;SDS011;9038;48.208;16.308;2022-12-22T01:42:55;36.57;;;19.50;;
17826;SDS011;9038;48.208;16.308;2022-12-22T01:45:18;34.63;;;18.73;;
17826;SDS011;9038;48.208;16.308;2022-12-22T01:47:40;31.63;;;17.37;;
17826;SDS011;9038;48.208;16.308;2022-12-22T01:49:59;35.70;;;18.47;;
17826;SDS011;9038;48.208;16.308;2022-12-22T01:52:19;35.83;;;18.80;;
17826;SDS011;9038;48.208;16.308;2022-12-22T01:54:44;33.47;;;18.00;;
17826;SDS011;9038;48.208;16.308;2022-12-22T01:57:05;40.80;;;19.30;;
17826;SDS011;9038;48.208;16.308;2022-12-22T01:59:24;38.40;;;18.40;;
17826;SDS011;9038;48.208;16.308;2022-12-22T02:01:43;36.40;;;18.03;;
17826;SDS011;9038;48.208;16.308;2022-12-22T02:04:03;40.60;;;19.43;;
17826;SDS011;9038;48.208;16.308;2022-12-22T02:06:24;35.47;;;18.90;;
17826;SDS011;9038;48.208;16.308;2022-12-22T02:08:52;37.27;;;18.23;;
17826;SDS011;9038;48.208;16.308;2022-12-22T02:11:26;32.17;;;17.43;;
17826;SDS011;9038;48.208;16.308;2022-12-22T02:14:04;35.63;;;18.90;;
17826;SDS011;9038;48.208;16.308;2022-12-22T02:16:33;39.37;;;19.57;;
17826;SDS011;9038;48.208;16.308;2022-12-22T02:18:59;37.80;;;19.73;;
17826;SDS011;9038;48.208;16.308;2022-12-22T02:21:25;38.30;;;18.47;;
17826;SDS011;9038;48.208;16.308;2022-12-22T02:24:03;39.50;;;19.23;;
17826;SDS011;9038;48.208;16.308;2022-12-22T02:26:34;34.83;;;18.60;;
17826;SDS011;9038;48.208;16.308;2022-12-22T02:28:56;41.20;;;19.00;;
17826;SDS011;9038;48.208;16.308;2022-12-22T02:31:15;34.20;;;18.10;;
17826;SDS011;9038;48.208;16.308;2022-12-22T02:33:34;33.43;;;18.23;;
17826;SDS011;9038;48.208;16.308;2022-12-22T02:35:56;36.10;;;18.30;;
17826;SDS011;9038;48.208;16.308;2022-12-22T02:38:24;35.63;;;17.97;;
17826;SDS011;9038;48.208;16.308;2022-12-22T02:40:54;40.33;;;19.37;;
17826;SDS011;9038;48.208;16.308;2022-12-22T02:43:31;41.73;;;19.07;;
17826;SDS011;9038;48.208;16.308;2022-12-22T02:46:01;37.53;;;18.77;;
17826;SDS011;9038;48.208;16.308;2022-12-22T02:48:29;36.90;;;18.37;;
17826;SDS011;9038;48.208;16.308;2022-12-22T02:50:54;37.07;;;19.43;;
17826;SDS011;9038;48.208;16.308;2022-12-22T02:53:24;39.30;;;20.30;;
17826;SDS011;9038;48.208;16.308;2022-12-22T02:55:45;41.53;;;20.17;;
17826;SDS011;9038;48.208;16.308;2022-12-22T02:58:04;36.03;;;18.97;;
17826;SDS011;9038;48.208;16.308;2022-12-22T03:00:25;41.97;;;20.80;;
17826;SDS011;9038;48.208;16.308;2022-12-22T03:02:45;40.83;;;20.27;;
17826;SDS011;9038;48.208;16.308;2022-12-22T03:05:04;44.97;;;21.00;;
17826;SDS011;9038;48.208;16.308;2022-12-22T03:07:23;44.57;;;21.60;;
17826;SDS011;9038;48.208;16.308;2022-12-22T03:09:42;38.37;;;19.93;;
17826;SDS011;9038;48.208;16.308;2022-12-22T03:12:02;38.10;;;20.23;;
17826;SDS011;9038;48.208;16.308;2022-12-22T03:14:21;36.60;;;19.17;;
17826;SDS011;9038;48.208;16.308;2022-12-22T03:16:42;41.13;;;21.17;;
17826;SDS011;9038;48.208;16.308;2022-12-22T03:19:02;43.60;;;21.47;;
17826;SDS011;9038;48.208;16.308;2022-12-22T03:21:22;42.47;;;21.50;;
17826;SDS011;9038;48.208;16.308;2022-12-22T03:23:41;43.43;;;21.30;;
17826;SDS011;9038;48.208;16.308;2022-12-22T03:26:00;45.47;;;21.90;;
17826;SDS011;9038;48.208;16.308;2022-12-22T03:28:03;43.67;;;21.53;;
17826;SDS011;9038;48.208;16.308;2022-12-22T03:30:06;40.20;;;20.70;;
17826;SDS011;9038;48.208;16.308;2022-12-22T03:32:10;45.13;;;22.67;;
17826;SDS011;9038;48.208;16.308;2022-12-22T03:34:12;41.57;;;21.37;;
17826;SDS011;9038;48.208;16.308;2022-12-22T03:36:14;41.53;;;20.60;;
17826;SDS011;9038;48.208;16.308;2022-12-22T03:38:16;44.80;;;21.93;;
17826;SDS011;9038;48.208;16.308;2022-12-22T03:40:18;39.33;;;20.83;;
17826;SDS011;9038;48.208;16.308;2022-12-22T03:42:20;38.73;;;20.47;;
17826;SDS011;9038;48.208;16.308;2022-12-22T03:44:40;41.80;;;21.00;;
17826;SDS011;9038;48.208;16.308;2022-12-22T03:46:59;39.83;;;19.63;;
17826;SDS011;9038;48.208;16.308;2022-12-22T03:49:03;40.60;;;20.03;;
17826;SDS011;9038;48.208;16.308;2022-12-22T03:51:11;42.63;;;21.10;;
17826;SDS011;9038;48.208;16.308;2022-12-22T03:53:13;41.50;;;20.30;;
17826;SDS011;9038;48.208;16.308;2022-12-22T03:55:15;45.50;;;22.03;;
17826;SDS011;9038;48.208;16.308;2022-12-22T03:57:17;45.27;;;22.27;;
17826;SDS011;9038;48.208;16.308;2022-12-22T03:59:19;45.73;;;21.70;;
17826;SDS011;9038;48.208;16.308;2022-12-22T04:01:21;48.80;;;21.80;;
17826;SDS011;9038;48.208;16.308;2022-12-22T04:03:23;44.97;;;22.50;;
17826;SDS011;9038;48.208;16.308;2022-12-22T04:05:29;48.40;;;22.37;;
17826;SDS011;9038;48.208;16.308;2022-12-22T04:07:31;43.40;;;20.70;;
17826;SDS011;9038;48.208;16.308;2022-12-22T04:09:33;46.63;;;21.57;;
17826;SDS011;9038;48.208;16.308;2022-12-22T04:11:35;45.87;;;21.97;;
17826;SDS011;9038;48.208;16.308;2022-12-22T04:13:54;45.87;;;20.90;;
17826;SDS011;9038;48.208;16.308;2022-12-22T04:15:55;41.50;;;20.77;;
17826;SDS011;9038;48.208;16.308;2022-12-22T04:17:57;43.10;;;21.57;;
17826;SDS011;9038;48.208;16.308;2022-12-22T04:20:00;41.07;;;20.60;;
17826;SDS011;9038;48.208;16.308;2022-12-22T04:22:03;45.57;;;21.87;;
17826;SDS011;9038;48.208;16.308;2022-12-22T04:24:06;43.77;;;21.77;;
17826;SDS011;9038;48.208;16.308;2022-12-22T04:26:09;43.53;;;21.00;;
17826;SDS011;9038;48.208;16.308;2022-12-22T04:28:11;41.10;;;20.07;;
17826;SDS011;9038;48.208;16.308;2022-12-22T04:30:13;43.17;;;21.70;;
17826;SDS011;9038;48.208;16.308;2022-12-22T04:32:15;44.53;;;21.60;;
17826;SDS011;9038;48.208;16.308;2022-12-22T04:34:17;43.70;;;20.97;;
17826;SDS011;9038;48.208;16.308;2022-12-22T04:36:19;44.17;;;21.30;;
17826;SDS011;9038;48.208;16.308;2022-12-22T04:38:22;48.43;;;22.53;;
17826;SDS011;9038;48.208;16.308;2022-12-22T04:40:24;47.50;;;22.20;;
17826;SDS011;9038;48.208;16.308;2022-12-22T04:42:26;47.97;;;22.30;;
17826;SDS011;9038;48.208;16.308;2022-12-22T04:44:28;43.37;;;21.93;;
17826;SDS011;9038;48.208;16.308;2022-12-22T04:46:30;47.07;;;21.37;;
17826;SDS011;9038;48.208;16.308;2022-12-22T04:48:33;41.13;;;20.33;;
17826;SDS011;9038;48.208;16.308;2022-12-22T04:50:35;39.83;;;20.73;;
17826;SDS011;9038;48.208;16.308;2022-12-22T04:52:37;43.27;;;20.37;;
17826;SDS011;9038;48.208;16.308;2022-12-22T04:54:40;41.97;;;19.73;;
17826;SDS011;9038;48.208;16.308;2022-12-22T04:56:42;42.07;;;20.40;;
17826;SDS011;9038;48.208;16.308;2022-12-22T04:58:44;39.87;;;19.67;;
17826;SDS011;9038;48.208;16.308;2022-12-22T05:00:46;41.57;;;19.07;;
17826;SDS011;9038;48.208;16.308;2022-12-22T05:02:48;43.97;;;20.13;;
17826;SDS011;9038;48.208;16.308;2022-12-22T05:04:52;41.70;;;20.00;;
17826;SDS011;9038;48.208;16.308;2022-12-22T05:06:54;41.70;;;20.37;;
17826;SDS011;9038;48.208;16.308;2022-12-22T05:08:56;40.77;;;20.47;;
17826;SDS011;9038;48.208;16.308;2022-12-22T05:10:59;42.30;;;21.37;;
17826;SDS011;9038;48.208;16.308;2022-12-22T05:13:02;45.27;;;20.93;;
17826;SDS011;9038;48.208;16.308;2022-12-22T05:15:04;44.33;;;21.00;;
17826;SDS011;9038;48.208;16.308;2022-12-22T05:17:06;44.67;;;20.93;;
17826;SDS011;9038;48.208;16.308;2022-12-22T05:19:08;43.97;;;21.03;;
17826;SDS011;9038;48.208;16.308;2022-12-22T05:21:11;51.73;;;23.40;;
17826;SDS011;9038;48.208;16.308;2022-12-22T05:23:14;45.87;;;21.77;;
17826;SDS011;9038;48.208;16.308;2022-12-22T05:25:16;46.23;;;21.70;;
17826;SDS011;9038;48.208;16.308;2022-12-22T05:27:21;47.07;;;22.27;;
17826;SDS011;9038;48.208;16.308;2022-12-22T05:29:23;49.80;;;22.43;;
17826;SDS011;9038;48.208;16.308;2022-12-22T05:31:25;48.90;;;22.80;;
17826;SDS011;9038;48.208;16.308;2022-12-22T05:33:27;44.27;;;20.77;;
17826;SDS011;9038;48.208;16.308;2022-12-22T05:35:29;48.30;;;21.33;;
17826;SDS011;9038;48.208;16.308;2022-12-22T05:37:31;49.87;;;21.33;;
17826;SDS011;9038;48.208;16.308;2022-12-22T05:39:33;47.33;;;21.83;;
17826;SDS011;9038;48.208;16.308;2022-12-22T05:41:35;43.30;;;20.63;;
17826;SDS011;9038;48.208;16.308;2022-12-22T05:43:39;46.80;;;21.20;;
17826;SDS011;9038;48.208;16.308;2022-12-22T05:45:42;44.50;;;20.90;;
17826;SDS011;9038;48.208;16.308;2022-12-22T05:47:45;48.17;;;21.60;;
17826;SDS011;9038;48.208;16.308;2022-12-22T05:49:48;49.80;;;22.00;;
17826;SDS011;9038;48.208;16.308;2022-12-22T05:51:50;48.97;;;21.67;;
17826;SDS011;9038;48.208;16.308;2022-12-22T05:53:53;49.07;;;22.97;;
17826;SDS011;9038;48.208;16.308;2022-12-22T05:55:55;49.87;;;22.93;;
17826;SDS011;9038;48.208;16.308;2022-12-22T05:57:57;48.87;;;21.97;;
17826;SDS011;9038;48.208;16.308;2022-12-22T06:00:03;56.37;;;23.07;;
17826;SDS011;9038;48.208;16.308;2022-12-22T06:02:06;48.30;;;21.83;;
17826;SDS011;9038;48.208;16.308;2022-12-22T06:04:08;53.47;;;22.60;;
17826;SDS011;9038;48.208;16.308;2022-12-22T06:06:10;49.63;;;22.40;;
17826;SDS011;9038;48.208;16.308;2022-12-22T06:08:12;62.83;;;23.77;;
17826;SDS011;9038;48.208;16.308;2022-12-22T06:10:14;54.60;;;24.73;;
17826;SDS011;9038;48.208;16.308;2022-12-22T06:12:17;51.13;;;22.27;;
17826;SDS011;9038;48.208;16.308;2022-12-22T06:14:19;52.43;;;24.00;;
17826;SDS011;9038;48.208;16.308;2022-12-22T06:16:22;54.77;;;22.97;;
17826;SDS011;9038;48.208;16.308;2022-12-22T06:18:24;52.70;;;23.00;;
17826;SDS011;9038;48.208;16.308;2022-12-22T06:20:27;55.10;;;23.50;;
17826;SDS011;9038;48.208;16.308;2022-12-22T06:22:29;50.50;;;24.00;;
17826;SDS011;9038;48.208;16.308;2022-12-22T06:24:31;56.47;;;23.43;;
17826;SDS011;9038;48.208;16.308;2022-12-22T06:26:33;57.50;;;24.00;;
17826;SDS011;9038;48.208;16.308;2022-12-22T06:28:35;49.93;;;21.27;;
17826;SDS011;9038;48.208;16.308;2022-12-22T06:30:37;60.07;;;22.80;;
17826;SDS011;9038;48.208;16.308;2022-12-22T06:32:40;60.80;;;23.47;;
17826;SDS011;9038;48.208;16.308;2022-12-22T06:34:42;72.37;;;24.00;;
17826;SDS011;9038;48.208;16.308;2022-12-22T06:36:44;70.30;;;23.67;;
17826;SDS011;9038;48.208;16.308;2022-12-22T06:38:47;56.33;;;22.13;;
17826;SDS011;9038;48.208;16.308;2022-12-22T06:40:49;93.70;;;25.20;;
17826;SDS011;9038;48.208;16.308;2022-12-22T06:42:51;72.97;;;24.13;;
17826;SDS011;9038;48.208;16.308;2022-12-22T06:45:10;61.87;;;23.37;;
17826;SDS011;9038;48.208;16.308;2022-12-22T06:47:12;59.57;;;23.70;;
17826;SDS011;9038;48.208;16.308;2022-12-22T06:49:15;58.03;;;22.73;;
17826;SDS011;9038;48.208;16.308;2022-12-22T06:51:17;73.73;;;23.10;;
17826;SDS011;9038;48.208;16.308;2022-12-22T06:53:19;78.80;;;23.10;;
17826;SDS011;9038;48.208;16.308;2022-12-22T06:55:21;83.50;;;24.37;;
17826;SDS011;9038;48.208;16.308;2022-12-22T06:57:23;85.80;;;24.17;;
17826;SDS011;9038;48.208;16.308;2022-12-22T06:59:25;63.40;;;22.93;;
17826;SDS011;9038;48.208;16.308;2022-12-22T07:01:27;59.13;;;23.13;;
17826;SDS011;9038;48.208;16.308;2022-12-22T07:03:29;81.50;;;25.17;;
17826;SDS011;9038;48.208;16.308;2022-12-22T07:05:32;102.93;;;24.77;;
17826;SDS011;9038;48.208;16.308;2022-12-22T07:07:34;138.70;;;25.27;;
17826;SDS011;9038;48.208;16.308;2022-12-22T07:09:36;89.53;;;25.57;;
17826;SDS011;9038;48.208;16.308;2022-12-22T07:11:38;62.53;;;21.63;;
17826;SDS011;9038;48.208;16.308;2022-12-22T07:13:40;54.30;;;21.70;;
17826;SDS011;9038;48.208;16.308;2022-12-22T07:15:42;59.10;;;22.77;;
17826;SDS011;9038;48.208;16.308;2022-12-22T07:17:44;66.43;;;22.97;;
17826;SDS011;9038;48.208;16.308;2022-12-22T07:19:46;52.03;;;21.77;;
17826;SDS011;9038;48.208;16.308;2022-12-22T07:21:50;59.47;;;22.57;;
17826;SDS011;9038;48.208;16.308;2022-12-22T07:23:52;50.77;;;21.87;;
17826;SDS011;9038;48.208;16.308;2022-12-22T07:25:54;47.60;;;21.60;;
17826;SDS011;9038;48.208;16.308;2022-12-22T07:27:56;55.77;;;22.27;;
17826;SDS011;9038;48.208;16.308;2022-12-22T07:29:58;48.27;;;21.70;;
17826;SDS011;9038;48.208;16.308;2022-12-22T07:32:00;49.53;;;22.00;;
17826;SDS011;9038;48.208;16.308;2022-12-22T07:34:02;60.53;;;26.50;;
17826;SDS011;9038;48.208;16.308;2022-12-22T07:36:05;67.33;;;23.70;;
17826;SDS011;9038;48.208;16.308;2022-12-22T07:38:11;56.90;;;23.00;;
17826;SDS011;9038;48.208;16.308;2022-12-22T07:40:13;102.03;;;27.10;;
17826;SDS011;9038;48.208;16.308;2022-12-22T07:42:15;58.67;;;23.30;;
17826;SDS011;9038;48.208;16.308;2022-12-22T07:44:35;57.53;;;24.27;;
17826;SDS011;9038;48.208;16.308;2022-12-22T07:46:37;61.57;;;23.30;;
17826;SDS011;9038;48.208;16.308;2022-12-22T07:48:39;76.50;;;23.67;;
17826;SDS011;9038;48.208;16.308;2022-12-22T07:51:00;54.40;;;23.43;;
17826;SDS011;9038;48.208;16.308;2022-12-22T07:53:03;50.93;;;21.60;;
17826;SDS011;9038;48.208;16.308;2022-12-22T07:55:08;53.37;;;22.10;;
17826;SDS011;9038;48.208;16.308;2022-12-22T07:57:10;54.83;;;22.20;;
17826;SDS011;9038;48.208;16.308;2022-12-22T07:59:12;53.40;;;22.67;;
17826;SDS011;9038;48.208;16.308;2022-12-22T08:01:14;56.20;;;23.17;;
17826;SDS011;9038;48.208;16.308;2022-12-22T08:03:16;65.63;;;24.30;;
17826;SDS011;9038;48.208;16.308;2022-12-22T08:05:18;46.33;;;22.20;;
17826;SDS011;9038;48.208;16.308;2022-12-22T08:07:20;53.00;;;22.40;;
17826;SDS011;9038;48.208;16.308;2022-12-22T08:09:22;48.43;;;22.87;;
17826;SDS011;9038;48.208;16.308;2022-12-22T08:11:26;49.07;;;21.90;;
17826;SDS011;9038;48.208;16.308;2022-12-22T08:13:28;51.73;;;22.23;;
17826;SDS011;9038;48.208;16.308;2022-12-22T08:15:30;52.67;;;22.67;;
17826;SDS011;9038;48.208;16.308;2022-12-22T08:17:32;50.73;;;21.73;;
17826;SDS011;9038;48.208;16.308;2022-12-22T08:19:34;52.03;;;22.33;;
17826;SDS011;9038;48.208;16.308;2022-12-22T08:21:36;63.23;;;23.50;;
17826;SDS011;9038;48.208;16.308;2022-12-22T08:23:38;51.57;;;22.53;;
17826;SDS011;9038;48.208;16.308;2022-12-22T08:25:40;47.07;;;22.33;;
17826;SDS011;9038;48.208;16.308;2022-12-22T08:27:45;58.63;;;23.93;;
17826;SDS011;9038;48.208;16.308;2022-12-22T08:29:50;53.17;;;24.43;;
17826;SDS011;9038;48.208;16.308;2022-12-22T08:31:55;54.30;;;22.87;;
17826;SDS011;9038;48.208;16.308;2022-12-22T08:33:58;52.10;;;22.93;;
17826;SDS011;9038;48.208;16.308;2022-12-22T08:36:02;43.87;;;19.90;;
17826;SDS011;9038;48.208;16.308;2022-12-22T08:38:05;49.80;;;20.97;;
17826;SDS011;9038;48.208;16.308;2022-12-22T08:40:09;43.50;;;20.80;;
17826;SDS011;9038;48.208;16.308;2022-12-22T08:42:17;39.03;;;19.43;;
17826;SDS011;9038;48.208;16.308;2022-12-22T08:44:22;42.10;;;20.20;;
17826;SDS011;9038;48.208;16.308;2022-12-22T08:46:25;55.57;;;25.23;;
17826;SDS011;9038;48.208;16.308;2022-12-22T08:48:27;41.80;;;19.63;;
17826;SDS011;9038;48.208;16.308;2022-12-22T08:50:29;51.30;;;21.87;;
17826;SDS011;9038;48.208;16.308;2022-12-22T08:52:31;42.93;;;20.17;;
17826;SDS011;9038;48.208;16.308;2022-12-22T08:54:33;42.27;;;20.47;;
17826;SDS011;9038;48.208;16.308;2022-12-22T08:56:35;42.63;;;19.27;;
17826;SDS011;9038;48.208;16.308;2022-12-22T08:58:38;39.37;;;19.13;;
17826;SDS011;9038;48.208;16.308;2022-12-22T09:00:41;42.07;;;19.70;;
17826;SDS011;9038;48.208;16.308;2022-12-22T09:02:44;42.80;;;19.73;;
17826;SDS011;9038;48.208;16.308;2022-12-22T09:04:48;38.20;;;19.97;;
17826;SDS011;9038;48.208;16.308;2022-12-22T09:06:50;44.17;;;19.10;;
17826;SDS011;9038;48.208;16.308;2022-12-22T09:08:53;48.27;;;20.13;;
17826;SDS011;9038;48.208;16.308;2022-12-22T09:10:58;44.67;;;21.10;;
17826;SDS011;9038;48.208;16.308;2022-12-22T09:13:03;46.93;;;21.10;;
17826;SDS011;9038;48.208;16.308;2022-12-22T09:15:05;47.37;;;21.97;;
17826;SDS011;9038;48.208;16.308;2022-12-22T09:17:10;46.03;;;20.77;;
17826;SDS011;9038;48.208;16.308;2022-12-22T09:19:12;51.00;;;22.70;;
17826;SDS011;9038;48.208;16.308;2022-12-22T09:21:14;43.70;;;20.77;;
17826;SDS011;9038;48.208;16.308;2022-12-22T09:23:16;45.13;;;21.57;;
17826;SDS011;9038;48.208;16.308;2022-12-22T09:25:18;46.43;;;21.77;;
17826;SDS011;9038;48.208;16.308;2022-12-22T09:27:20;47.37;;;21.43;;
17826;SDS011;9038;48.208;16.308;2022-12-22T09:29:22;46.40;;;21.70;;
17826;SDS011;9038;48.208;16.308;2022-12-22T09:31:24;43.73;;;21.83;;
17826;SDS011;9038;48.208;16.308;2022-12-22T09:33:28;52.47;;;22.30;;
17826;SDS011;9038;48.208;16.308;2022-12-22T09:35:30;51.80;;;24.20;;
17826;SDS011;9038;48.208;16.308;2022-12-22T09:37:32;47.90;;;22.20;;
17826;SDS011;9038;48.208;16.308;2022-12-22T09:39:34;57.07;;;22.43;;
17826;SDS011;9038;48.208;16.308;2022-12-22T09:41:41;48.17;;;22.47;;
17826;SDS011;9038;48.208;16.308;2022-12-22T09:43:45;55.93;;;23.60;;
17826;SDS011;9038;48.208;16.308;2022-12-22T09:45:48;52.73;;;22.67;;
17826;SDS011;9038;48.208;16.308;2022-12-22T09:47:51;51.67;;;23.23;;
17826;SDS011;9038;48.208;16.308;2022-12-22T09:49:55;52.30;;;21.87;;
17826;SDS011;9038;48.208;16.308;2022-12-22T09:51:58;45.83;;;21.87;;
17826;SDS011;9038;48.208;16.308;2022-12-22T09:54:02;50.50;;;22.07;;
17826;SDS011;9038;48.208;16.308;2022-12-22T09:56:05;50.53;;;22.63;;
17826;SDS011;9038;48.208;16.308;2022-12-22T09:58:14;55.87;;;22.53;;
17826;SDS011;9038;48.208;16.308;2022-12-22T10:00:20;46.50;;;21.67;;
17826;SDS011;9038;48.208;16.308;2022-12-22T10:02:24;54.73;;;22.97;;
17826;SDS011;9038;48.208;16.308;2022-12-22T10:04:37;51.10;;;22.07;;
17826;SDS011;9038;48.208;16.308;2022-12-22T10:06:46;46.57;;;21.50;;
17826;SDS011;9038;48.208;16.308;2022-12-22T10:09:00;49.47;;;21.60;;
17826;SDS011;9038;48.208;16.308;2022-12-22T10:11:04;51.30;;;21.43;;
17826;SDS011;9038;48.208;16.308;2022-12-22T10:13:17;50.50;;;22.60;;
17826;SDS011;9038;48.208;16.308;2022-12-22T10:15:20;46.63;;;20.77;;
17826;SDS011;9038;48.208;16.308;2022-12-22T10:17:23;41.80;;;19.20;;
17826;SDS011;9038;48.208;16.308;2022-12-22T10:19:27;46.33;;;20.17;;
17826;SDS011;9038;48.208;16.308;2022-12-22T10:21:29;44.07;;;20.47;;
17826;SDS011;9038;48.208;16.308;2022-12-22T10:23:33;49.53;;;21.00;;
17826;SDS011;9038;48.208;16.308;2022-12-22T10:25:38;44.07;;;19.43;;
17826;SDS011;9038;48.208;16.308;2022-12-22T10:27:42;47.87;;;21.53;;
17826;SDS011;9038;48.208;16.308;2022-12-22T10:29:44;46.23;;;20.43;;
17826;SDS011;9038;48.208;16.308;2022-12-22T10:31:56;49.53;;;22.30;;
17826;SDS011;9038;48.208;16.308;2022-12-22T10:34:09;43.30;;;20.37;;
17826;SDS011;9038;48.208;16.308;2022-12-22T10:36:13;50.77;;;22.30;;
17826;SDS011;9038;48.208;16.308;2022-12-22T10:38:20;54.03;;;22.03;;
17826;SDS011;9038;48.208;16.308;2022-12-22T10:40:26;46.93;;;21.43;;
17826;SDS011;9038;48.208;16.308;2022-12-22T10:42:30;46.20;;;21.77;;
17826;SDS011;9038;48.208;16.308;2022-12-22T10:44:32;44.43;;;21.50;;
17826;SDS011;9038;48.208;16.308;2022-12-22T10:46:37;44.90;;;21.40;;
17826;SDS011;9038;48.208;16.308;2022-12-22T10:48:42;44.73;;;21.37;;
17826;SDS011;9038;48.208;16.308;2022-12-22T10:50:44;39.73;;;19.67;;
17826;SDS011;9038;48.208;16.308;2022-12-22T10:52:49;45.43;;;21.13;;
17826;SDS011;9038;48.208;16.308;2022-12-22T10:54:52;45.40;;;20.53;;
17826;SDS011;9038;48.208;16.308;2022-12-22T10:57:27;42.57;;;20.50;;
17826;SDS011;9038;48.208;16.308;2022-12-22T10:59:30;49.73;;;21.70;;
17826;SDS011;9038;48.208;16.308;2022-12-22T11:01:34;48.43;;;21.03;;
17826;SDS011;9038;48.208;16.308;2022-12-22T11:03:37;41.70;;;20.50;;
17826;SDS011;9038;48.208;16.308;2022-12-22T11:05:40;38.00;;;19.60;;
17826;SDS011;9038;48.208;16.308;2022-12-22T11:07:43;39.57;;;20.10;;
17826;SDS011;9038;48.208;16.308;2022-12-22T11:09:47;41.73;;;20.60;;
17826;SDS011;9038;48.208;16.308;2022-12-22T11:11:49;40.77;;;20.27;;
17826;SDS011;9038;48.208;16.308;2022-12-22T11:13:58;45.40;;;21.97;;
17826;SDS011;9038;48.208;16.308;2022-12-22T11:16:10;37.97;;;20.13;;
17826;SDS011;9038;48.208;16.308;2022-12-22T11:18:23;44.33;;;20.77;;
17826;SDS011;9038;48.208;16.308;2022-12-22T11:20:43;43.30;;;20.20;;
17826;SDS011;9038;48.208;16.308;2022-12-22T11:22:51;44.03;;;19.63;;
17826;SDS011;9038;48.208;16.308;2022-12-22T11:25:05;45.07;;;20.93;;
17826;SDS011;9038;48.208;16.308;2022-12-22T11:27:20;38.30;;;19.07;;
17826;SDS011;9038;48.208;16.308;2022-12-22T11:29:49;40.10;;;19.23;;
17826;SDS011;9038;48.208;16.308;2022-12-22T11:32:09;40.37;;;19.03;;
17826;SDS011;9038;48.208;16.308;2022-12-22T11:34:28;38.27;;;18.80;;
17826;SDS011;9038;48.208;16.308;2022-12-22T11:36:48;41.73;;;19.37;;
17826;SDS011;9038;48.208;16.308;2022-12-22T11:39:03;38.90;;;19.20;;
17826;SDS011;9038;48.208;16.308;2022-12-22T11:41:10;40.93;;;20.13;;
17826;SDS011;9038;48.208;16.308;2022-12-22T11:43:33;37.07;;;19.50;;
17826;SDS011;9038;48.208;16.308;2022-12-22T11:45:52;44.70;;;20.77;;
17826;SDS011;9038;48.208;16.308;2022-12-22T11:48:03;44.67;;;19.73;;
17826;SDS011;9038;48.208;16.308;2022-12-22T11:50:17;43.10;;;19.77;;
17826;SDS011;9038;48.208;16.308;2022-12-22T11:52:33;41.93;;;20.63;;
17826;SDS011;9038;48.208;16.308;2022-12-22T11:55:07;44.07;;;19.57;;
17826;SDS011;9038;48.208;16.308;2022-12-22T11:57:22;43.57;;;20.37;;
17826;SDS011;9038;48.208;16.308;2022-12-22T11:59:35;43.83;;;20.73;;
17826;SDS011;9038;48.208;16.308;2022-12-22T12:01:52;44.07;;;20.17;;
17826;SDS011;9038;48.208;16.308;2022-12-22T12:04:19;47.13;;;21.07;;
17826;SDS011;9038;48.208;16.308;2022-12-22T12:06:46;50.23;;;21.33;;
17826;SDS011;9038;48.208;16.308;2022-12-22T12:08:58;44.30;;;20.87;;
17826;SDS011;9038;48.208;16.308;2022-12-22T12:11:13;49.13;;;22.27;;
17826;SDS011;9038;48.208;16.308;2022-12-22T12:13:24;47.87;;;22.13;;
17826;SDS011;9038;48.208;16.308;2022-12-22T12:15:34;45.87;;;21.63;;
17826;SDS011;9038;48.208;16.308;2022-12-22T12:17:44;43.20;;;20.67;;
17826;SDS011;9038;48.208;16.308;2022-12-22T12:20:02;43.57;;;20.97;;
17826;SDS011;9038;48.208;16.308;2022-12-22T12:22:22;58.70;;;22.87;;
17826;SDS011;9038;48.208;16.308;2022-12-22T12:24:41;46.40;;;21.80;;
17826;SDS011;9038;48.208;16.308;2022-12-22T12:26:54;46.73;;;22.20;;
17826;SDS011;9038;48.208;16.308;2022-12-22T12:29:05;44.13;;;21.63;;
17826;SDS011;9038;48.208;16.308;2022-12-22T12:31:16;46.97;;;20.57;;
17826;SDS011;9038;48.208;16.308;2022-12-22T12:33:26;46.30;;;20.87;;
17826;SDS011;9038;48.208;16.308;2022-12-22T12:35:41;46.50;;;21.80;;